Time;durP1;ratioP1;P1;durP2;ratioP2;P2;SDS_P1;SDS_P2;PMS_P1;PMS_P2;Temp;Humidity;BMP_temperature;BMP_pressure;BME280_temperature;BME280_humidity;BME280_pressure;Samples;Min_cycle;Max_cycle;Signal;HPM_P1;HPM_P2
2023/12/21 00:02:00;;;;;;;201.37;57.17;;;;;;;;;;4926924;29;20688;-73
2023/12/21 00:04:25;;;;;;;190.83;57.17;;;;;;;;;;4910113;29;21041;-73
2023/12/21 00:06:51;;;;;;;194.97;57.20;;;;;;;;;;4910606;29;20233;-73
2023/12/21 00:09:16;;;;;;;191.63;56.53;;;;;;;;;;4910497;29;20967;-73
2023/12/21 00:11:41;;;;;;;189.33;57.13;;;;;;;;;;4908770;29;20894;-73
2023/12/21 00:14:07;;;;;;;197.50;55.50;;;;;;;;;;4892649;29;20762;-73
2023/12/21 00:16:32;;;;;;;210.20;58.30;;;;;;;;;;4891780;29;20210;-73
2023/12/21 00:18:57;;;;;;;207.37;57.90;;;;;;;;;;4907718;29;20237;-72
2023/12/21 00:21:23;;;;;;;183.43;54.57;;;;;;;;;;4905678;29;20237;-74
2023/12/21 00:23:48;;;;;;;186.13;56.13;;;;;;;;;;4908055;29;20680;-73
2023/12/21 00:26:13;;;;;;;180.77;55.43;;;;;;;;;;4907689;29;20222;-72
2023/12/21 00:28:39;;;;;;;178.07;55.07;;;;;;;;;;4907052;29;20242;-74
2023/12/21 00:31:04;;;;;;;190.43;54.30;;;;;;;;;;4907564;29;20226;-73
2023/12/21 00:33:29;;;;;;;209.20;58.10;;;;;;;;;;4908038;29;20320;-73
2023/12/21 00:35:55;;;;;;;224.33;71.73;;;;;;;;;;4890877;29;20331;-74
2023/12/21 00:38:20;;;;;;;287.87;93.00;;;;;;;;;;4890331;29;20609;-74
2023/12/21 00:40:45;;;;;;;211.20;68.17;;;;;;;;;;4890785;29;20223;-73
2023/12/21 00:43:11;;;;;;;176.57;57.53;;;;;;;;;;4907772;29;20626;-73
2023/12/21 00:45:36;;;;;;;189.23;59.83;;;;;;;;;;4906775;29;20339;-73
2023/12/21 00:48:01;;;;;;;163.73;53.80;;;;;;;;;;4907359;29;20274;-73
2023/12/21 00:50:27;;;;;;;159.60;51.03;;;;;;;;;;4906599;29;20234;-72
2023/12/21 00:52:52;;;;;;;153.87;51.80;;;;;;;;;;4907555;29;20300;-72
2023/12/21 00:55:17;;;;;;;150.40;51.53;;;;;;;;;;4890918;29;20634;-71
2023/12/21 00:57:43;;;;;;;142.20;46.90;;;;;;;;;;4891509;29;20254;-71
2023/12/21 01:00:08;;;;;;;138.13;46.53;;;;;;;;;;4907110;29;20712;-72
2023/12/21 01:02:34;;;;;;;141.70;47.03;;;;;;;;;;4908190;29;20226;-72
2023/12/21 01:04:59;;;;;;;188.57;69.40;;;;;;;;;;4898322;29;20238;-71
2023/12/21 01:07:25;;;;;;;143.53;46.33;;;;;;;;;;4907701;29;20723;-72
2023/12/21 01:09:50;;;;;;;143.03;47.83;;;;;;;;;;4908046;29;20222;-71
2023/12/21 01:12:15;;;;;;;156.07;52.00;;;;;;;;;;4891283;29;20246;-72
2023/12/21 01:14:41;;;;;;;156.60;51.00;;;;;;;;;;4890302;29;20329;-72
2023/12/21 01:17:06;;;;;;;138.30;44.27;;;;;;;;;;4906117;29;20232;-72
2023/12/21 01:19:32;;;;;;;147.20;47.10;;;;;;;;;;4906339;29;20265;-72
2023/12/21 01:21:57;;;;;;;126.73;44.87;;;;;;;;;;4907257;29;20286;-72
2023/12/21 01:24:22;;;;;;;146.03;46.00;;;;;;;;;;4906313;29;20249;-72
2023/12/21 01:26:48;;;;;;;132.67;45.10;;;;;;;;;;4890938;29;21143;-72
2023/12/21 01:29:13;;;;;;;136.20;45.33;;;;;;;;;;4906431;29;20298;-72
2023/12/21 01:31:38;;;;;;;122.83;43.07;;;;;;;;;;4907635;29;20234;-72
2023/12/21 01:34:07;;;;;;;128.83;44.47;;;;;;;;;;4888207;29;20756;-73
2023/12/21 01:36:32;;;;;;;116.83;42.73;;;;;;;;;;4905164;29;20238;-72
2023/12/21 01:38:57;;;;;;;133.57;43.83;;;;;;;;;;4890493;29;20323;-72
2023/12/21 01:41:23;;;;;;;121.70;42.87;;;;;;;;;;4907580;29;20290;-72
2023/12/21 01:43:49;;;;;;;101.73;38.87;;;;;;;;;;4906070;29;20794;-72
2023/12/21 01:46:14;;;;;;;124.33;44.73;;;;;;;;;;4906057;29;20229;-72
2023/12/21 01:48:39;;;;;;;108.37;40.27;;;;;;;;;;4905249;29;20308;-72
2023/12/21 01:51:05;;;;;;;114.73;41.80;;;;;;;;;;4890262;29;20215;-72
2023/12/21 01:53:30;;;;;;;97.67;38.90;;;;;;;;;;4904665;29;20226;-72
2023/12/21 01:55:55;;;;;;;102.23;38.63;;;;;;;;;;4905875;29;20624;-72
2023/12/21 01:58:21;;;;;;;95.63;38.43;;;;;;;;;;4889862;29;20329;-72
2023/12/21 02:00:46;;;;;;;90.03;37.93;;;;;;;;;;4890109;29;20226;-72
2023/12/21 02:03:11;;;;;;;101.93;39.10;;;;;;;;;;4905926;29;20292;-72
2023/12/21 02:05:37;;;;;;;98.63;39.27;;;;;;;;;;4905252;29;20386;-73
2023/12/21 02:08:02;;;;;;;99.57;37.73;;;;;;;;;;4906492;29;20305;-72
2023/12/21 02:10:27;;;;;;;89.63;36.83;;;;;;;;;;4905423;29;20329;-71
2023/12/21 02:12:53;;;;;;;74.20;32.03;;;;;;;;;;4905246;29;20233;-71
2023/12/21 02:15:18;;;;;;;77.73;32.23;;;;;;;;;;4905202;29;20246;-73
2023/12/21 02:17:44;;;;;;;78.53;33.23;;;;;;;;;;4905803;29;20299;-72
2023/12/21 02:20:09;;;;;;;61.40;28.70;;;;;;;;;;4905684;29;20234;-72
2023/12/21 02:22:34;;;;;;;67.10;30.07;;;;;;;;;;4905443;29;20688;-73
2023/12/21 02:25:00;;;;;;;64.17;28.93;;;;;;;;;;4905191;29;20305;-72
2023/12/21 02:27:25;;;;;;;64.30;29.20;;;;;;;;;;4906267;29;20237;-72
2023/12/21 02:29:51;;;;;;;61.63;29.47;;;;;;;;;;4889685;29;20743;-73
2023/12/21 02:32:16;;;;;;;66.17;29.83;;;;;;;;;;4906989;29;20316;-73
2023/12/21 02:34:41;;;;;;;61.83;30.00;;;;;;;;;;4897508;29;20264;-73
2023/12/21 02:37:07;;;;;;;64.90;29.73;;;;;;;;;;4905974;29;20222;-74
2023/12/21 02:39:32;;;;;;;63.73;28.63;;;;;;;;;;4904696;29;20230;-74
2023/12/21 02:41:57;;;;;;;63.60;28.90;;;;;;;;;;4905068;29;20283;-74
2023/12/21 02:44:23;;;;;;;64.00;28.70;;;;;;;;;;4906725;29;20324;-73
2023/12/21 02:46:48;;;;;;;60.03;28.80;;;;;;;;;;4905838;29;20237;-73
2023/12/21 02:49:13;;;;;;;64.83;28.57;;;;;;;;;;4905195;29;20289;-73
2023/12/21 02:51:39;;;;;;;61.23;27.57;;;;;;;;;;4889523;29;20256;-73
2023/12/21 02:54:04;;;;;;;62.00;28.60;;;;;;;;;;4904914;29;20253;-73
2023/12/21 02:56:29;;;;;;;58.43;26.60;;;;;;;;;;4905727;29;20286;-73
2023/12/21 02:58:55;;;;;;;65.10;28.77;;;;;;;;;;4905408;29;20280;-73
2023/12/21 03:01:20;;;;;;;62.37;28.10;;;;;;;;;;4908351;29;20289;-71
2023/12/21 03:03:45;;;;;;;57.73;26.83;;;;;;;;;;4908911;29;20230;-72
2023/12/21 03:06:11;;;;;;;58.10;27.03;;;;;;;;;;4909987;29;20234;-72
2023/12/21 03:08:36;;;;;;;58.87;27.00;;;;;;;;;;4907776;29;20236;-72
2023/12/21 03:11:02;;;;;;;58.07;26.90;;;;;;;;;;4910392;29;20708;-73
2023/12/21 03:13:27;;;;;;;58.50;26.47;;;;;;;;;;4908306;29;20925;-73
2023/12/21 03:15:52;;;;;;;54.67;26.03;;;;;;;;;;4892988;29;20470;-72
2023/12/21 03:18:18;;;;;;;59.67;26.77;;;;;;;;;;4909924;29;20277;-73
2023/12/21 03:20:43;;;;;;;54.90;25.27;;;;;;;;;;4908793;29;20222;-73
2023/12/21 03:23:08;;;;;;;55.57;25.30;;;;;;;;;;4908805;29;20234;-73
2023/12/21 03:25:34;;;;;;;53.73;25.77;;;;;;;;;;4892838;29;20230;-73
2023/12/21 03:27:59;;;;;;;53.80;26.07;;;;;;;;;;4910321;29;20246;-72
2023/12/21 03:30:25;;;;;;;54.43;25.37;;;;;;;;;;4900443;29;20221;-73
2023/12/21 03:32:50;;;;;;;53.43;25.07;;;;;;;;;;4902775;29;20241;-73
2023/12/21 03:35:15;;;;;;;55.13;25.53;;;;;;;;;;4909032;29;20230;-72
2023/12/21 03:37:41;;;;;;;54.50;24.77;;;;;;;;;;4908170;29;20863;-72
2023/12/21 03:40:06;;;;;;;47.30;22.30;;;;;;;;;;4908330;29;20228;-73
2023/12/21 03:42:32;;;;;;;44.50;22.43;;;;;;;;;;4909740;29;20238;-71
2023/12/21 03:44:57;;;;;;;47.63;23.27;;;;;;;;;;4909668;29;20230;-72
2023/12/21 03:47:22;;;;;;;43.60;21.30;;;;;;;;;;4910187;29;20233;-72
2023/12/21 03:49:48;;;;;;;43.87;21.73;;;;;;;;;;4892386;29;20281;-71
2023/12/21 03:52:13;;;;;;;50.27;23.10;;;;;;;;;;4891929;29;20318;-72
2023/12/21 03:54:38;;;;;;;44.17;21.30;;;;;;;;;;4907853;29;20333;-73
2023/12/21 03:57:04;;;;;;;48.27;22.67;;;;;;;;;;4908885;29;20222;-72
2023/12/21 03:59:30;;;;;;;46.40;21.73;;;;;;;;;;4909451;29;20321;-73
2023/12/21 04:01:56;;;;;;;44.57;21.50;;;;;;;;;;4908683;29;20776;-73
2023/12/21 04:04:21;;;;;;;45.23;21.83;;;;;;;;;;4908452;29;20234;-71
2023/12/21 04:06:47;;;;;;;46.67;22.17;;;;;;;;;;4891200;29;20758;-72
2023/12/21 04:09:12;;;;;;;46.83;21.20;;;;;;;;;;4908322;29;20909;-72
2023/12/21 04:11:38;;;;;;;43.00;20.83;;;;;;;;;;4891341;29;20302;-73
2023/12/21 04:14:03;;;;;;;40.07;19.47;;;;;;;;;;4908076;29;20245;-72
2023/12/21 04:16:28;;;;;;;44.13;20.53;;;;;;;;;;4908062;29;20378;-74
2023/12/21 04:18:54;;;;;;;40.50;19.00;;;;;;;;;;4909274;29;20237;-71
2023/12/21 04:21:19;;;;;;;35.80;17.87;;;;;;;;;;4907863;29;20273;-71
2023/12/21 04:23:44;;;;;;;36.77;17.57;;;;;;;;;;4906859;29;20230;-71
2023/12/21 04:26:17;;;;;;;34.60;16.33;;;;;;;;;;4908441;29;20225;-71
2023/12/21 04:28:42;;;;;;;31.77;15.70;;;;;;;;;;4906963;29;20237;-71
2023/12/21 04:31:07;;;;;;;33.03;15.23;;;;;;;;;;4907264;29;20226;-71
2023/12/21 04:33:33;;;;;;;30.53;15.03;;;;;;;;;;4907296;29;20381;-71
2023/12/21 04:35:58;;;;;;;30.07;14.50;;;;;;;;;;4908178;29;20226;-72
2023/12/21 04:38:23;;;;;;;30.60;14.77;;;;;;;;;;4907664;29;20304;-72
2023/12/21 04:40:49;;;;;;;30.50;14.67;;;;;;;;;;4890981;29;20815;-71
2023/12/21 04:43:14;;;;;;;26.17;13.43;;;;;;;;;;4909059;29;20848;-72
2023/12/21 04:45:39;;;;;;;25.67;12.60;;;;;;;;;;4908660;29;20230;-72
2023/12/21 04:48:04;;;;;;;27.03;13.33;;;;;;;;;;4908578;29;20222;-72
2023/12/21 04:50:30;;;;;;;26.67;13.50;;;;;;;;;;4907227;29;20238;-73
2023/12/21 04:52:55;;;;;;;27.17;13.30;;;;;;;;;;4891882;29;20222;-72
2023/12/21 04:55:21;;;;;;;27.03;13.17;;;;;;;;;;4907729;29;20242;-72
2023/12/21 04:57:46;;;;;;;27.43;13.83;;;;;;;;;;4907198;29;20226;-73
2023/12/21 05:00:11;;;;;;;24.70;12.80;;;;;;;;;;4907768;29;20256;-73
2023/12/21 05:02:37;;;;;;;25.70;12.57;;;;;;;;;;4908032;29;20264;-71
2023/12/21 05:05:02;;;;;;;24.73;12.30;;;;;;;;;;4909708;29;20258;-72
2023/12/21 05:07:28;;;;;;;23.83;11.73;;;;;;;;;;4891224;29;20266;-71
2023/12/21 05:09:59;;;;;;;22.73;12.00;;;;;;;;;;4917525;29;20255;-72
2023/12/21 05:12:24;;;;;;;22.50;11.77;;;;;;;;;;4926140;29;20307;-71
2023/12/21 05:14:50;;;;;;;24.47;12.23;;;;;;;;;;4927467;29;20685;-72
2023/12/21 05:17:15;;;;;;;23.07;11.37;;;;;;;;;;4926755;29;20221;-73
2023/12/21 05:19:42;;;;;;;26.77;11.47;;;;;;;;;;4909399;29;20288;-72
2023/12/21 05:22:07;;;;;;;23.30;11.80;;;;;;;;;;4909601;29;20229;-72
2023/12/21 05:24:33;;;;;;;22.40;10.83;;;;;;;;;;4925706;29;20238;-73
2023/12/21 05:26:58;;;;;;;21.10;10.80;;;;;;;;;;4909214;29;20233;-72
2023/12/21 05:29:23;;;;;;;21.93;10.93;;;;;;;;;;4925829;29;20229;-72
2023/12/21 05:31:49;;;;;;;23.50;11.13;;;;;;;;;;4908905;29;20290;-72
2023/12/21 05:34:14;;;;;;;22.03;10.53;;;;;;;;;;4927118;29;20237;-72
2023/12/21 05:36:40;;;;;;;22.30;11.37;;;;;;;;;;4924432;29;20240;-72
2023/12/21 05:39:05;;;;;;;23.33;11.50;;;;;;;;;;4926557;29;20695;-72
2023/12/21 05:41:31;;;;;;;20.27;10.57;;;;;;;;;;4924266;29;20612;-72
2023/12/21 05:43:56;;;;;;;22.97;11.60;;;;;;;;;;4909559;29;20281;-73
2023/12/21 05:46:22;;;;;;;21.60;11.17;;;;;;;;;;4925295;29;20237;-72
2023/12/21 05:48:47;;;;;;;21.77;11.43;;;;;;;;;;4908279;29;20234;-72
2023/12/21 05:51:12;;;;;;;24.50;11.63;;;;;;;;;;4924859;29;20257;-72
2023/12/21 05:53:38;;;;;;;24.10;11.60;;;;;;;;;;4926454;29;20222;-73
2023/12/21 05:56:03;;;;;;;23.03;10.90;;;;;;;;;;4928393;29;20244;-71
2023/12/21 05:58:28;;;;;;;24.17;11.90;;;;;;;;;;4908806;29;20285;-73
2023/12/21 06:00:54;;;;;;;22.53;11.27;;;;;;;;;;4906030;29;20318;-71
2023/12/21 06:03:20;;;;;;;23.90;11.53;;;;;;;;;;4905286;29;20229;-72
2023/12/21 06:05:45;;;;;;;26.60;12.60;;;;;;;;;;4924522;29;20255;-73
2023/12/21 06:08:10;;;;;;;24.70;11.50;;;;;;;;;;4919747;29;20660;-72
2023/12/21 06:10:36;;;;;;;23.07;11.60;;;;;;;;;;4924384;29;20244;-72
2023/12/21 06:13:01;;;;;;;22.43;11.80;;;;;;;;;;4909733;29;20232;-73
2023/12/21 06:15:26;;;;;;;25.07;11.23;;;;;;;;;;4923991;29;20256;-72
2023/12/21 06:17:52;;;;;;;22.83;11.43;;;;;;;;;;4923958;29;20699;-73
2023/12/21 06:20:17;;;;;;;20.80;11.27;;;;;;;;;;4925076;29;20245;-71
2023/12/21 06:22:43;;;;;;;22.53;10.87;;;;;;;;;;4924168;29;20233;-73
2023/12/21 06:25:08;;;;;;;21.60;11.27;;;;;;;;;;4915147;29;20328;-72
2023/12/21 06:27:33;;;;;;;20.93;11.13;;;;;;;;;;4908298;29;20229;-73
2023/12/21 06:29:59;;;;;;;21.93;10.63;;;;;;;;;;4925733;29;20229;-72
2023/12/21 06:32:24;;;;;;;22.77;11.17;;;;;;;;;;4924447;29;20288;-73
2023/12/21 06:34:50;;;;;;;22.13;11.10;;;;;;;;;;4923611;29;20730;-72
2023/12/21 06:37:15;;;;;;;21.83;11.53;;;;;;;;;;4905628;29;20313;-73
2023/12/21 06:39:40;;;;;;;21.57;11.17;;;;;;;;;;4923877;29;20290;-72
2023/12/21 06:42:06;;;;;;;23.30;11.10;;;;;;;;;;4926186;29;20309;-72
2023/12/21 06:44:31;;;;;;;21.17;10.40;;;;;;;;;;4924132;29;20632;-72
2023/12/21 06:46:56;;;;;;;20.60;10.67;;;;;;;;;;4924238;29;20264;-73
2023/12/21 06:49:22;;;;;;;23.33;11.23;;;;;;;;;;4926044;29;20229;-71
2023/12/21 06:51:47;;;;;;;22.93;11.03;;;;;;;;;;4924382;29;20227;-71
2023/12/21 06:54:12;;;;;;;24.63;11.20;;;;;;;;;;4923856;29;20229;-72
2023/12/21 06:56:38;;;;;;;21.50;11.33;;;;;;;;;;4921821;29;20398;-72
2023/12/21 06:59:04;;;;;;;19.93;9.97;;;;;;;;;;4909171;29;20229;-71
2023/12/21 07:01:30;;;;;;;21.37;10.63;;;;;;;;;;4924842;29;20229;-72
2023/12/21 07:03:55;;;;;;;22.10;10.80;;;;;;;;;;4925800;29;20239;-72
2023/12/21 07:06:20;;;;;;;21.73;11.17;;;;;;;;;;4923949;29;20878;-72
2023/12/21 07:08:46;;;;;;;22.43;10.80;;;;;;;;;;4925816;29;20232;-72
2023/12/21 07:11:11;;;;;;;21.20;10.60;;;;;;;;;;4908494;29;20720;-73
2023/12/21 07:13:37;;;;;;;21.10;10.13;;;;;;;;;;4907989;29;20317;-71
2023/12/21 07:16:02;;;;;;;19.23;10.07;;;;;;;;;;4924069;29;20240;-72
2023/12/21 07:18:28;;;;;;;20.27;10.50;;;;;;;;;;4924721;29;20304;-73
2023/12/21 07:20:53;;;;;;;19.90;10.10;;;;;;;;;;4923300;29;20248;-72
2023/12/21 07:23:18;;;;;;;19.13;9.83;;;;;;;;;;4908480;29;20253;-73
2023/12/21 07:25:44;;;;;;;21.67;10.80;;;;;;;;;;4923393;29;20959;-73
2023/12/21 07:28:09;;;;;;;20.83;10.17;;;;;;;;;;4924266;29;20229;-72
2023/12/21 07:30:34;;;;;;;22.33;10.37;;;;;;;;;;4923524;29;20289;-73
2023/12/21 07:33:00;;;;;;;19.87;9.57;;;;;;;;;;4925112;29;20236;-72
2023/12/21 07:35:25;;;;;;;20.00;10.00;;;;;;;;;;4925291;29;20259;-71
2023/12/21 07:37:50;;;;;;;17.93;9.70;;;;;;;;;;4924133;29;20233;-71
2023/12/21 07:40:16;;;;;;;20.07;10.30;;;;;;;;;;4922474;29;20226;-72
2023/12/21 07:42:41;;;;;;;21.03;10.07;;;;;;;;;;4923892;29;20258;-72
2023/12/21 07:45:07;;;;;;;20.67;8.97;;;;;;;;;;4907064;29;20232;-72
2023/12/21 07:47:32;;;;;;;18.00;9.60;;;;;;;;;;4911342;29;20237;-72
2023/12/21 07:49:57;;;;;;;18.57;8.93;;;;;;;;;;4926787;29;20608;-73
2023/12/21 07:52:23;;;;;;;17.27;9.10;;;;;;;;;;4926947;29;20376;-72
2023/12/21 07:54:48;;;;;;;20.10;10.23;;;;;;;;;;4926533;29;20240;-72
2023/12/21 07:57:14;;;;;;;20.13;10.13;;;;;;;;;;4927482;29;20218;-73
2023/12/21 07:59:40;;;;;;;19.23;9.93;;;;;;;;;;4911113;29;20324;-71
2023/12/21 08:02:05;;;;;;;19.00;9.10;;;;;;;;;;4927389;29;20711;-73
2023/12/21 08:04:31;;;;;;;21.53;9.93;;;;;;;;;;4927137;29;20236;-72
2023/12/21 08:06:56;;;;;;;19.17;9.30;;;;;;;;;;4926892;29;20233;-72
2023/12/21 08:09:21;;;;;;;17.93;8.83;;;;;;;;;;4911371;29;20233;-73
2023/12/21 08:11:47;;;;;;;17.10;9.00;;;;;;;;;;4926907;29;20240;-73
2023/12/21 08:14:13;;;;;;;18.77;9.60;;;;;;;;;;4910889;29;20244;-73
2023/12/21 08:16:38;;;;;;;18.37;9.07;;;;;;;;;;4926472;29;20734;-73
2023/12/21 08:19:04;;;;;;;20.07;9.30;;;;;;;;;;4911332;29;20222;-73
2023/12/21 08:21:29;;;;;;;20.27;9.37;;;;;;;;;;4925883;29;20627;-73
2023/12/21 08:23:54;;;;;;;17.63;9.00;;;;;;;;;;4926395;29;20221;-73
2023/12/21 08:26:20;;;;;;;17.00;8.60;;;;;;;;;;4927245;29;20225;-73
2023/12/21 08:28:45;;;;;;;22.33;8.90;;;;;;;;;;4926419;29;20229;-72
2023/12/21 08:31:11;;;;;;;14.87;8.33;;;;;;;;;;4911034;29;20229;-73
2023/12/21 08:33:36;;;;;;;16.10;8.07;;;;;;;;;;4925826;29;20240;-71
2023/12/21 08:36:02;;;;;;;18.07;8.70;;;;;;;;;;4910571;29;20240;-71
2023/12/21 08:38:27;;;;;;;16.33;8.40;;;;;;;;;;4926467;29;20222;-73
2023/12/21 08:40:53;;;;;;;15.97;8.53;;;;;;;;;;4925571;29;20229;-72
2023/12/21 08:43:18;;;;;;;14.93;7.97;;;;;;;;;;4911142;29;20260;-72
2023/12/21 08:45:43;;;;;;;14.03;7.37;;;;;;;;;;4925878;29;20233;-72
2023/12/21 08:48:09;;;;;;;16.43;8.20;;;;;;;;;;4910307;29;20221;-73
2023/12/21 08:50:34;;;;;;;16.10;7.50;;;;;;;;;;4910240;29;20226;-73
2023/12/21 08:53:00;;;;;;;14.67;7.70;;;;;;;;;;4910286;29;20232;-73
2023/12/21 08:55:27;;;;;;;16.93;8.47;;;;;;;;;;4926472;29;20229;-73
2023/12/21 08:57:53;;;;;;;14.07;7.57;;;;;;;;;;4925213;29;20229;-72
2023/12/21 09:00:18;;;;;;;15.90;7.87;;;;;;;;;;4925954;29;20227;-73
2023/12/21 09:02:44;;;;;;;14.30;7.13;;;;;;;;;;4925901;29;20300;-73
2023/12/21 09:05:12;;;;;;;13.87;7.73;;;;;;;;;;4910291;29;20308;-73
2023/12/21 09:07:37;;;;;;;17.80;8.10;;;;;;;;;;4909023;29;20775;-73
2023/12/21 09:10:03;;;;;;;16.23;7.80;;;;;;;;;;4925908;29;20232;-73
2023/12/21 09:12:29;;;;;;;14.23;6.23;;;;;;;;;;4924876;29;20233;-73
2023/12/21 09:14:54;;;;;;;14.57;7.07;;;;;;;;;;4909467;29;20226;-72
2023/12/21 09:17:20;;;;;;;13.30;6.57;;;;;;;;;;4909394;29;20237;-72
2023/12/21 09:19:45;;;;;;;11.97;6.10;;;;;;;;;;4925086;29;20225;-72
2023/12/21 09:22:11;;;;;;;15.80;6.73;;;;;;;;;;4909498;29;20618;-73
2023/12/21 09:24:39;;;;;;;12.83;7.13;;;;;;;;;;4925153;29;20900;-73
2023/12/21 09:27:04;;;;;;;14.23;6.80;;;;;;;;;;4924347;29;20226;-71
2023/12/21 09:29:30;;;;;;;14.77;7.30;;;;;;;;;;4925114;29;20296;-74
2023/12/21 09:31:55;;;;;;;14.73;6.67;;;;;;;;;;4909740;29;20226;-73
2023/12/21 09:34:21;;;;;;;14.03;7.37;;;;;;;;;;4925785;29;20328;-74
2023/12/21 09:36:46;;;;;;;12.93;7.17;;;;;;;;;;4924990;29;20260;-74
2023/12/21 09:39:12;;;;;;;13.77;7.07;;;;;;;;;;4925070;29;20218;-72
2023/12/21 09:41:38;;;;;;;12.53;6.03;;;;;;;;;;4909399;29;20229;-73
2023/12/21 09:44:03;;;;;;;15.80;7.07;;;;;;;;;;4909652;29;20221;-73
2023/12/21 09:46:30;;;;;;;16.13;7.30;;;;;;;;;;4924692;29;20348;-72
2023/12/21 09:48:55;;;;;;;17.23;7.20;;;;;;;;;;4925185;29;20221;-73
2023/12/21 09:51:21;;;;;;;15.30;7.73;;;;;;;;;;4924499;29;20229;-73
2023/12/21 09:53:46;;;;;;;14.43;7.60;;;;;;;;;;4924595;29;20297;-73
2023/12/21 09:56:14;;;;;;;16.33;7.33;;;;;;;;;;4926306;29;20702;-73
2023/12/21 09:58:39;;;;;;;13.87;6.70;;;;;;;;;;4924782;29;20240;-75
2023/12/21 10:01:05;;;;;;;12.70;6.50;;;;;;;;;;4925135;29;20217;-73
2023/12/21 10:03:32;;;;;;;14.73;6.93;;;;;;;;;;4924548;29;20328;-73
2023/12/21 10:05:57;;;;;;;14.53;7.13;;;;;;;;;;4924800;29;20359;-74
2023/12/21 10:08:22;;;;;;;17.53;7.30;;;;;;;;;;4924873;29;20824;-73
2023/12/21 10:10:48;;;;;;;12.63;6.83;;;;;;;;;;4924493;29;20218;-73
2023/12/21 10:13:13;;;;;;;15.93;7.23;;;;;;;;;;4925058;29;20228;-73
2023/12/21 10:15:40;;;;;;;13.17;7.17;;;;;;;;;;4910575;29;21059;-72
2023/12/21 10:18:06;;;;;;;13.17;6.83;;;;;;;;;;4924220;29;20233;-73
2023/12/21 10:20:31;;;;;;;13.13;6.73;;;;;;;;;;4924932;29;20221;-73
2023/12/21 10:22:57;;;;;;;12.73;6.90;;;;;;;;;;4926384;29;20221;-73
2023/12/21 10:25:22;;;;;;;13.37;6.37;;;;;;;;;;4925827;29;20786;-73
2023/12/21 10:27:56;;;;;;;12.97;6.47;;;;;;;;;;4923980;29;20888;-73
2023/12/21 10:30:22;;;;;;;13.57;6.33;;;;;;;;;;4922479;29;20311;-72
2023/12/21 10:32:55;;;;;;;11.60;6.40;;;;;;;;;;4924680;29;20324;-73
2023/12/21 10:35:20;;;;;;;11.77;6.00;;;;;;;;;;4924475;29;20429;-72
2023/12/21 10:37:48;;;;;;;14.63;6.20;;;;;;;;;;4923891;29;20737;-72
2023/12/21 10:40:14;;;;;;;13.27;6.50;;;;;;;;;;4925148;29;20246;-74
2023/12/21 10:42:43;;;;;;;12.63;5.83;;;;;;;;;;4909025;29;20276;-73
2023/12/21 10:45:08;;;;;;;12.17;5.87;;;;;;;;;;4900706;29;20229;-72
2023/12/21 10:47:34;;;;;;;16.30;6.53;;;;;;;;;;4925164;29;20236;-73
2023/12/21 10:49:59;;;;;;;13.70;5.80;;;;;;;;;;4923767;29;20224;-73
2023/12/21 10:52:25;;;;;;;12.17;5.90;;;;;;;;;;4926319;29;20226;-73
2023/12/21 10:54:50;;;;;;;12.27;6.13;;;;;;;;;;4923819;29;20256;-72
2023/12/21 10:57:16;;;;;;;10.90;5.80;;;;;;;;;;4925433;29;20229;-72
2023/12/21 10:59:43;;;;;;;13.70;6.13;;;;;;;;;;4925587;29;20233;-73
2023/12/21 11:02:09;;;;;;;12.47;6.10;;;;;;;;;;4924822;29;20229;-73
2023/12/21 11:04:34;;;;;;;12.20;5.40;;;;;;;;;;4923136;29;20225;-72
2023/12/21 11:07:02;;;;;;;11.50;5.57;;;;;;;;;;4908149;29;20259;-72
2023/12/21 11:09:31;;;;;;;10.43;5.50;;;;;;;;;;4924115;29;20225;-73
2023/12/21 11:11:57;;;;;;;11.23;5.67;;;;;;;;;;4907877;29;20289;-73
2023/12/21 11:14:23;;;;;;;11.50;6.00;;;;;;;;;;4925076;29;20237;-73
2023/12/21 11:16:50;;;;;;;11.87;5.67;;;;;;;;;;4923662;29;20243;-73
2023/12/21 11:19:17;;;;;;;10.93;5.77;;;;;;;;;;4923648;29;20225;-73
2023/12/21 11:21:42;;;;;;;11.23;5.97;;;;;;;;;;4926820;29;20809;-73
2023/12/21 11:24:08;;;;;;;13.93;6.43;;;;;;;;;;4929801;29;20356;-73
2023/12/21 11:26:33;;;;;;;11.67;6.20;;;;;;;;;;4911192;29;20225;-73
2023/12/21 11:29:05;;;;;;;11.47;5.80;;;;;;;;;;4929129;29;20340;-73
2023/12/21 11:31:38;;;;;;;10.67;5.67;;;;;;;;;;4927486;29;20331;-73
2023/12/21 11:34:12;;;;;;;10.17;5.63;;;;;;;;;;4911999;29;20312;-73
2023/12/21 11:36:38;;;;;;;14.37;5.53;;;;;;;;;;4927541;29;20233;-72
2023/12/21 11:39:07;;;;;;;11.20;5.37;;;;;;;;;;4927354;29;20281;-73
2023/12/21 11:41:32;;;;;;;11.07;5.70;;;;;;;;;;4928100;29;20280;-73
2023/12/21 11:44:01;;;;;;;10.30;5.50;;;;;;;;;;4927673;29;20225;-73
2023/12/21 11:46:26;;;;;;;11.90;5.73;;;;;;;;;;4927515;29;20229;-73
2023/12/21 11:48:52;;;;;;;12.27;5.27;;;;;;;;;;4928437;29;20292;-73
2023/12/21 11:51:17;;;;;;;11.17;5.83;;;;;;;;;;4911693;29;20292;-74
2023/12/21 11:53:43;;;;;;;12.07;5.73;;;;;;;;;;4927700;29;20233;-72
2023/12/21 11:56:14;;;;;;;11.40;6.03;;;;;;;;;;4911441;29;20244;-73
2023/12/21 11:58:40;;;;;;;11.93;5.20;;;;;;;;;;4926597;29;20921;-73
2023/12/21 12:01:07;;;;;;;9.30;4.90;;;;;;;;;;4927029;29;20731;-73
2023/12/21 12:03:32;;;;;;;9.90;4.87;;;;;;;;;;4926583;29;20285;-73
2023/12/21 12:06:01;;;;;;;9.87;5.40;;;;;;;;;;4927280;29;20240;-73
2023/12/21 12:08:26;;;;;;;8.87;4.70;;;;;;;;;;4911506;29;20285;-73
2023/12/21 12:10:52;;;;;;;10.87;5.17;;;;;;;;;;4909956;29;20233;-73
2023/12/21 12:13:23;;;;;;;12.13;5.37;;;;;;;;;;4927062;29;20217;-73
2023/12/21 12:15:50;;;;;;;11.17;5.30;;;;;;;;;;4911331;29;20233;-72
2023/12/21 12:18:15;;;;;;;9.13;4.63;;;;;;;;;;4927183;29;20217;-72
2023/12/21 12:20:42;;;;;;;9.70;5.13;;;;;;;;;;4927492;29;20645;-73
2023/12/21 12:23:07;;;;;;;11.07;4.63;;;;;;;;;;4911440;29;20316;-73
2023/12/21 12:25:32;;;;;;;11.53;5.43;;;;;;;;;;4927859;29;20249;-73
2023/12/21 12:27:58;;;;;;;9.23;5.03;;;;;;;;;;4928350;29;20221;-73
2023/12/21 12:30:23;;;;;;;9.80;4.63;;;;;;;;;;4926778;29;20711;-73
2023/12/21 12:32:49;;;;;;;9.13;4.90;;;;;;;;;;4925178;29;20317;-72
2023/12/21 12:35:14;;;;;;;9.77;5.07;;;;;;;;;;4910988;29;20304;-72
2023/12/21 12:37:40;;;;;;;10.20;4.67;;;;;;;;;;4927615;29;20624;-73
2023/12/21 12:40:05;;;;;;;9.93;4.37;;;;;;;;;;4926288;29;20231;-72
2023/12/21 12:42:31;;;;;;;8.27;4.43;;;;;;;;;;4926011;29;20252;-72
2023/12/21 12:44:56;;;;;;;7.53;4.40;;;;;;;;;;4928264;29;20304;-73
2023/12/21 12:47:22;;;;;;;8.87;4.77;;;;;;;;;;4926517;29;20221;-73
2023/12/21 12:49:47;;;;;;;7.43;4.00;;;;;;;;;;4925640;29;20226;-72
2023/12/21 12:52:20;;;;;;;7.87;4.30;;;;;;;;;;4926076;29;20888;-73
2023/12/21 12:54:47;;;;;;;8.30;4.63;;;;;;;;;;4926951;29;20605;-72
2023/12/21 12:57:13;;;;;;;8.90;4.63;;;;;;;;;;4926373;29;20229;-72
2023/12/21 12:59:38;;;;;;;8.80;4.53;;;;;;;;;;4925515;29;20233;-72
2023/12/21 13:02:04;;;;;;;7.93;4.30;;;;;;;;;;4910040;29;20236;-73
2023/12/21 13:04:29;;;;;;;7.47;4.03;;;;;;;;;;4927105;29;20225;-72
2023/12/21 13:06:54;;;;;;;6.87;4.03;;;;;;;;;;4924430;29;20241;-73
2023/12/21 13:09:20;;;;;;;7.80;4.47;;;;;;;;;;4927445;29;20629;-72
2023/12/21 13:11:45;;;;;;;10.00;4.70;;;;;;;;;;4925364;29;20817;-73
2023/12/21 13:14:12;;;;;;;8.73;4.60;;;;;;;;;;4925979;29;20229;-73
2023/12/21 13:16:38;;;;;;;10.17;5.20;;;;;;;;;;4925393;29;20727;-73
2023/12/21 13:19:04;;;;;;;8.63;4.30;;;;;;;;;;4909538;29;20265;-73
2023/12/21 13:21:31;;;;;;;7.73;4.40;;;;;;;;;;4909669;29;20261;-73
2023/12/21 13:23:56;;;;;;;9.37;4.27;;;;;;;;;;4926106;29;20228;-72
2023/12/21 13:26:21;;;;;;;9.23;4.30;;;;;;;;;;4909984;29;20312;-73
2023/12/21 13:28:47;;;;;;;10.43;4.80;;;;;;;;;;4909561;29;20319;-73
2023/12/21 13:31:13;;;;;;;9.63;5.07;;;;;;;;;;4927061;29;20228;-73
2023/12/21 13:33:39;;;;;;;9.97;5.10;;;;;;;;;;4926434;29;20222;-73
2023/12/21 13:36:04;;;;;;;8.90;4.70;;;;;;;;;;4925323;29;20676;-74
2023/12/21 13:38:30;;;;;;;9.00;4.73;;;;;;;;;;4925208;29;20233;-72
2023/12/21 13:40:55;;;;;;;8.87;4.87;;;;;;;;;;4926458;29;20225;-73
2023/12/21 13:43:21;;;;;;;6.67;4.10;;;;;;;;;;4926415;29;20288;-72
2023/12/21 13:45:46;;;;;;;10.53;4.20;;;;;;;;;;4923858;29;20233;-72
2023/12/21 13:48:12;;;;;;;7.60;4.20;;;;;;;;;;4922099;29;20903;-73
2023/12/21 13:50:37;;;;;;;10.20;4.43;;;;;;;;;;4922228;29;20233;-73
2023/12/21 13:53:03;;;;;;;9.63;4.90;;;;;;;;;;4925928;29;20232;-73
2023/12/21 13:55:29;;;;;;;8.67;4.37;;;;;;;;;;4909495;29;20320;-73
2023/12/21 13:57:55;;;;;;;10.30;4.37;;;;;;;;;;4924554;29;20236;-72
2023/12/21 14:00:22;;;;;;;10.67;4.73;;;;;;;;;;4926824;29;20230;-73
2023/12/21 14:02:49;;;;;;;11.57;4.77;;;;;;;;;;4908259;29;20319;-73
2023/12/21 14:05:14;;;;;;;8.53;4.60;;;;;;;;;;4926146;29;20229;-73
2023/12/21 14:07:40;;;;;;;10.70;4.97;;;;;;;;;;4908502;29;20229;-73
2023/12/21 14:10:05;;;;;;;11.10;5.17;;;;;;;;;;4925207;29;20221;-73
2023/12/21 14:12:31;;;;;;;10.50;5.00;;;;;;;;;;4909321;29;20635;-73
2023/12/21 14:14:56;;;;;;;9.93;5.20;;;;;;;;;;4925074;29;20331;-73